Rock Creek, Oregon
Current Conditions -  °F | °C
As of 3:53 PM on Friday 28 Nov 2014 (Local Time) from KHIO Reporting Station
Light Rain Light Rain  
Wind Chill: 55°   Ceiling: 2400
Heat Index: 55°   Visibility: 6mi
Dew Point: 53°   Wind: 13mph
Humidity: 93%   Direction: 190°S
Pressure: 29.45"   Gusts: NA
Location:  45.5526°N, 122.821°W
Report Text: KHIO 282353Z 19011KT 6SM -RA BR FEW009 BKN024 OVC045 13/12 A2945 RMK AO2 RAB37 SLP973 P0003 60016 T01280117 10128 20117 56014
Loading
Personal Weather Stations






























Interactive Weather Map New forecast layout! Learn more

10-Day Weather Forecast

Advertisements
Track Severe Weather on mobile